ニアメ の空港の天気 - METARとTAF

ニアメ/ディオリ・アマニ国際空港 ( DRRN / NIM ) - ニジェール ニアメ
飛行場実況気象(Metar)
観測時間01/23 06:00 WAT (01/23 05:00 UTC)
風向・風速東 3m/s
視程4000m
天気現象風塵
なし
気温18℃
湿度20%
気圧1014hPa
METARDRRN 230500Z 08006KT 4000 DU NSC 18/M05 Q1014 NOSIG
過去の天気等 Google飛行場航空写真 Wunderground天気予報

過去48時間のMETAR

飛行場予報(TAF)
発表時間: 1/23 06:00 WAT (1/23 05:00 UTC)
予報対象時間: 23日7時 WAT ~ 24日13時 WAT
風向・風速東 4m/s
視程6,000m
なし
23日7時 WAT ~ 23日9時 WAT に一時的に
視程3,000m
天気現象風塵
23日9時 WAT ~ 23日13時 WAT に一時的に
風向・風速東 9m/s
視程2,500m
天気現象高い風塵
TAF DRRN 230500Z 2306/2412 08008KT 6000 NSC
TEMPO 2306/2308 3000 DU
TEMPO 2308/2312 10018KT 2500 BLDU